Time;durP1;ratioP1;P1;durP2;ratioP2;P2;SDS_P1;SDS_P2;PMS_P1;PMS_P2;Temp;Humidity;BMP_temperature;BMP_pressure;BME280_temperature;BME280_humidity;BME280_pressure;Samples;Min_cycle;Max_cycle;Signal;HPM_P1;HPM_P2
2021/05/29 00:00:42;;;;;;;8.90;5.20;;;10.80;99.90;;;;;;5020638;28;20436;-82
2021/05/29 00:03:08;;;;;;;7.00;6.40;;;11.00;99.90;;;;;;5020869;28;20417;-82
2021/05/29 00:05:35;;;;;;;6.50;5.60;;;;;;;;;;5021249;28;20498;-81
2021/05/29 00:08:01;;;;;;;8.50;6.70;;;11.10;99.90;;;;;;5019102;28;20487;-81
2021/05/29 00:10:28;;;;;;;9.27;6.47;;;;;;;;;;5020459;28;20494;-81
2021/05/29 00:12:54;;;;;;;9.20;6.20;;;10.90;99.90;;;;;;5019174;28;20451;-82
2021/05/29 00:15:20;;;;;;;8.80;6.60;;;;;;;;;;5016322;28;20534;-83
2021/05/29 00:17:47;;;;;;;10.80;6.20;;;10.90;99.90;;;;;;5015623;28;20455;-82
2021/05/29 00:20:14;;;;;;;6.03;5.43;;;10.70;99.90;;;;;;5017202;28;20447;-82
2021/05/29 00:22:40;;;;;;;4.87;4.47;;;10.80;99.90;;;;;;5018397;28;20786;-81
2021/05/29 00:25:07;;;;;;;7.40;4.90;;;10.90;99.90;;;;;;5017545;28;20499;-82
2021/05/29 00:27:33;;;;;;;6.90;5.63;;;;;;;;;;5016700;28;20471;-81
2021/05/29 00:29:59;;;;;;;5.57;5.03;;;10.80;99.90;;;;;;5016906;28;20443;-83
2021/05/29 00:32:26;;;;;;;8.33;4.50;;;10.60;99.90;;;;;;5021734;28;20455;-79
2021/05/29 00:34:53;;;;;;;4.73;4.33;;;10.80;99.90;;;;;;5027095;28;20451;-82
2021/05/29 00:37:19;;;;;;;6.90;4.40;;;;;;;;;;5021553;28;20455;-82
2021/05/29 00:39:46;;;;;;;6.10;4.90;;;;;;;;;;5022677;28;20526;-83
2021/05/29 00:42:12;;;;;;;5.80;4.87;;;10.90;99.90;;;;;;5037690;28;20451;-81
2021/05/29 00:44:46;;;;;;;7.17;5.03;;;10.60;99.90;;;;;;5034820;28;20452;-81
2021/05/29 00:47:12;;;;;;;5.40;4.90;;;10.60;99.90;;;;;;5032639;28;20442;-83
2021/05/29 00:49:38;;;;;;;5.07;3.57;;;10.40;99.90;;;;;;5021150;28;20546;-83
2021/05/29 00:52:07;;;;;;;5.90;5.07;;;10.60;99.90;;;;;;5021151;28;20439;-83
2021/05/29 00:54:33;;;;;;;7.07;4.63;;;10.60;99.90;;;;;;5020162;28;20530;-83
2021/05/29 00:56:59;;;;;;;7.70;5.53;;;10.50;99.90;;;;;;5019399;28;20451;-83
2021/05/29 00:59:26;;;;;;;7.37;5.30;;;10.60;99.90;;;;;;5019291;28;20418;-82
2021/05/29 01:01:52;;;;;;;8.80;5.50;;;;;;;;;;5020513;28;20447;-82
2021/05/29 01:04:18;;;;;;;5.63;5.23;;;10.60;99.90;;;;;;5020582;28;20446;-82
2021/05/29 01:06:44;;;;;;;7.77;5.10;;;10.60;99.90;;;;;;5031282;28;20446;-80
2021/05/29 01:09:11;;;;;;;6.83;6.23;;;10.40;99.90;;;;;;5033769;28;20496;-80
2021/05/29 01:11:38;;;;;;;5.90;4.97;;;10.40;99.90;;;;;;5033553;28;20474;-81
2021/05/29 01:14:04;;;;;;;5.90;4.80;;;10.50;99.90;;;;;;5033244;28;20478;-80
2021/05/29 01:16:43;;;;;;;6.90;6.30;;;10.40;99.90;;;;;;5032346;28;20475;-80
2021/05/29 01:19:11;;;;;;;7.30;5.50;;;10.40;99.90;;;;;;5033100;28;20836;-80
2021/05/29 01:21:37;;;;;;;6.77;5.37;;;10.30;99.90;;;;;;5034926;28;20469;-80
2021/05/29 01:24:05;;;;;;;7.57;6.20;;;10.20;99.90;;;;;;5032571;28;20458;-80
2021/05/29 01:26:31;;;;;;;11.93;6.10;;;;;;;;;;5028009;28;20475;-82
2021/05/29 01:28:58;;;;;;;7.90;5.60;;;;;;;;;;5024535;28;20477;-82
2021/05/29 01:31:26;;;;;;;7.47;5.23;;;10.10;99.90;;;;;;5023860;28;20451;-82
2021/05/29 01:33:56;;;;;;;8.10;6.00;;;10.00;99.90;;;;;;5019510;28;20523;-82
2021/05/29 01:36:23;;;;;;;7.80;5.70;;;;;;;;;;5019924;28;20474;-82
2021/05/29 01:38:50;;;;;;;6.27;5.67;;;9.90;99.90;;;;;;5020474;28;20439;-83
2021/05/29 01:41:19;;;;;;;8.83;5.57;;;9.90;99.90;;;;;;5026400;28;20575;-82
2021/05/29 01:43:48;;;;;;;6.53;5.90;;;9.90;99.90;;;;;;5031744;28;20418;-82
2021/05/29 01:46:16;;;;;;;9.70;6.03;;;9.80;99.90;;;;;;5033478;28;20465;-80
2021/05/29 01:48:44;;;;;;;6.50;5.93;;;9.80;99.90;;;;;;5034326;28;20475;-80
2021/05/29 01:51:11;;;;;;;7.23;6.53;;;9.90;99.90;;;;;;5034317;28;20455;-80
2021/05/29 01:53:38;;;;;;;34.50;21.23;;;9.80;99.90;;;;;;5034615;28;20440;-81
2021/05/29 01:56:05;;;;;;;16.93;12.70;;;9.70;99.90;;;;;;5023002;28;20459;-82
2021/05/29 01:58:32;;;;;;;8.53;7.57;;;9.70;99.90;;;;;;5034979;28;20433;-81
2021/05/29 02:00:58;;;;;;;8.07;7.27;;;9.70;99.90;;;;;;5033159;28;20443;-80
2021/05/29 02:03:25;;;;;;;6.97;5.93;;;9.80;99.90;;;;;;5035793;28;20447;-82
2021/05/29 02:05:51;;;;;;;14.53;9.40;;;9.70;99.90;;;;;;5053616;22;20490;-75
2021/05/29 02:08:17;;;;;;;9.00;7.00;;;9.70;99.90;;;;;;5018871;28;20852;-75
2021/05/29 02:10:45;;;;;;;7.77;6.93;;;9.60;99.90;;;;;;5015573;28;20422;-75
2021/05/29 02:13:20;;;;;;;8.47;7.63;;;9.60;99.90;;;;;;5015376;28;20434;-75
2021/05/29 02:15:47;;;;;;;11.90;7.60;;;9.60;99.90;;;;;;5015338;28;20510;-75
2021/05/29 02:18:13;;;;;;;9.03;8.13;;;9.50;99.90;;;;;;5015502;28;20529;-75
2021/05/29 02:20:42;;;;;;;9.80;7.50;;;9.50;99.90;;;;;;5015414;28;20451;-75
2021/05/29 02:23:10;;;;;;;11.63;8.27;;;9.50;99.90;;;;;;5015283;28;20469;-75
2021/05/29 02:25:37;;;;;;;9.10;7.50;;;9.60;99.90;;;;;;5015246;28;20470;-75
2021/05/29 02:28:03;;;;;;;9.17;7.20;;;9.50;99.90;;;;;;5015289;28;20470;-75
2021/05/29 02:30:30;;;;;;;12.20;8.07;;;9.50;99.90;;;;;;5015148;28;20437;-75
2021/05/29 02:32:57;;;;;;;13.00;8.17;;;9.40;99.90;;;;;;5013079;28;20524;-75
2021/05/29 02:35:23;;;;;;;10.50;8.33;;;9.60;99.90;;;;;;5013092;28;20523;-75
2021/05/29 02:37:49;;;;;;;9.57;8.57;;;9.40;99.90;;;;;;5012954;28;20451;-74
2021/05/29 02:40:15;;;;;;;13.97;8.43;;;9.50;99.90;;;;;;5013146;28;20426;-75
2021/05/29 02:42:42;;;;;;;10.20;8.40;;;9.50;99.90;;;;;;5012921;28;20956;-75
2021/05/29 02:45:09;;;;;;;9.10;7.90;;;9.70;99.90;;;;;;5012886;28;20443;-75
2021/05/29 02:47:35;;;;;;;10.50;8.40;;;9.50;99.90;;;;;;5013511;28;20473;-75
2021/05/29 02:50:03;;;;;;;9.03;8.27;;;9.50;99.90;;;;;;5014650;28;20459;-75
2021/05/29 02:52:29;;;;;;;11.10;9.57;;;9.50;99.90;;;;;;5014819;28;20443;-75
2021/05/29 02:54:56;;;;;;;11.80;10.03;;;9.50;99.90;;;;;;5013684;28;20447;-75
2021/05/29 02:57:22;;;;;;;11.00;9.27;;;9.50;99.90;;;;;;5014213;28;20474;-75
2021/05/29 02:59:48;;;;;;;11.30;9.53;;;9.50;99.90;;;;;;5014300;28;20457;-75
2021/05/29 03:02:14;;;;;;;13.98;10.43;;;9.70;99.90;;;;;;5013483;28;20471;-76
2021/05/29 03:04:40;;;;;;;11.23;9.13;;;9.70;99.90;;;;;;5014768;28;20232;-75
2021/05/29 03:07:07;;;;;;;9.83;8.83;;;9.70;99.90;;;;;;5014133;28;20838;-75
2021/05/29 03:09:34;;;;;;;10.87;9.00;;;9.60;99.90;;;;;;5014109;28;20418;-76
2021/05/29 03:12:01;;;;;;;11.80;10.43;;;9.50;99.90;;;;;;5014291;28;20429;-75
2021/05/29 03:14:27;;;;;;;11.93;10.47;;;9.50;99.90;;;;;;5014163;28;20454;-76
2021/05/29 03:16:53;;;;;;;12.13;7.90;;;9.60;99.90;;;;;;5014352;28;20445;-76
2021/05/29 03:19:20;;;;;;;13.90;8.43;;;9.60;99.90;;;;;;5013881;28;20500;-75
2021/05/29 03:21:46;;;;;;;9.20;8.30;;;9.60;99.90;;;;;;5014126;28;20448;-76
2021/05/29 03:24:13;;;;;;;10.80;8.73;;;9.60;99.90;;;;;;5014136;28;20429;-75
2021/05/29 03:26:39;;;;;;;12.10;7.90;;;9.70;99.90;;;;;;5013939;28;20499;-75
2021/05/29 03:29:06;;;;;;;12.73;8.83;;;9.80;99.90;;;;;;5013970;28;20938;-75
2021/05/29 03:31:32;;;;;;;11.67;8.50;;;9.70;99.90;;;;;;5013831;28;20482;-75
2021/05/29 03:33:59;;;;;;;11.47;7.70;;;9.70;99.90;;;;;;5025109;28;20443;-74
2021/05/29 03:36:25;;;;;;;10.50;7.83;;;9.60;99.90;;;;;;5034267;28;20471;-74
2021/05/29 03:38:52;;;;;;;9.80;7.43;;;9.70;99.90;;;;;;5035228;28;20479;-74
2021/05/29 03:41:19;;;;;;;11.83;7.70;;;9.60;99.90;;;;;;5019409;28;20435;-73
2021/05/29 03:43:45;;;;;;;9.63;7.50;;;9.50;99.90;;;;;;5017860;28;20447;-75
2021/05/29 03:46:12;;;;;;;8.57;7.50;;;9.50;99.90;;;;;;5014938;28;20438;-75
2021/05/29 03:48:38;;;;;;;12.47;8.10;;;9.50;99.90;;;;;;5014605;28;20949;-77
2021/05/29 03:51:04;;;;;;;15.00;9.30;;;9.60;99.90;;;;;;5014417;28;20455;-76
2021/05/29 03:53:30;;;;;;;11.30;7.50;;;9.70;99.90;;;;;;5014094;28;20451;-75
2021/05/29 03:55:56;;;;;;;14.73;7.80;;;9.70;99.90;;;;;;5014209;28;20892;-76
2021/05/29 03:58:23;;;;;;;14.33;8.57;;;9.80;99.90;;;;;;5013481;28;20511;-75
2021/05/29 04:00:50;;;;;;;14.70;8.60;;;9.70;99.90;;;;;;5013791;28;20443;-75
2021/05/29 04:03:16;;;;;;;14.67;8.93;;;9.70;99.90;;;;;;5013400;28;20805;-75
2021/05/29 04:05:42;;;;;;;12.30;8.98;;;9.70;99.90;;;;;;5013002;28;20443;-76
2021/05/29 04:08:08;;;;;;;14.90;9.97;;;9.70;99.90;;;;;;5013619;28;20227;-75
2021/05/29 04:10:36;;;;;;;44.33;25.33;;;9.70;99.90;;;;;;5012951;28;20561;-75
2021/05/29 04:13:02;;;;;;;13.20;10.87;;;9.60;99.90;;;;;;5013028;28;20208;-75
2021/05/29 04:15:29;;;;;;;25.97;15.17;;;9.50;99.90;;;;;;5013247;28;20506;-75
2021/05/29 04:17:55;;;;;;;16.40;10.40;;;9.50;99.90;;;;;;5014226;28;20454;-76
2021/05/29 04:20:24;;;;;;;17.30;10.70;;;9.40;99.90;;;;;;5013401;28;20447;-76
2021/05/29 04:22:51;;;;;;;14.10;9.73;;;9.30;99.90;;;;;;5013662;28;20433;-76
2021/05/29 04:25:19;;;;;;;16.57;10.87;;;9.00;99.90;;;;;;5013092;28;20835;-75
2021/05/29 04:27:47;;;;;;;15.13;10.40;;;9.30;99.90;;;;;;5013842;28;20505;-76
2021/05/29 04:30:16;;;;;;;13.77;10.40;;;9.20;99.90;;;;;;5013385;28;20483;-76
2021/05/29 04:32:43;;;;;;;13.60;9.83;;;9.20;99.90;;;;;;5013601;28;20494;-76
2021/05/29 04:35:10;;;;;;;12.77;9.63;;;9.40;99.90;;;;;;5013242;28;20455;-75
2021/05/29 04:37:38;;;;;;;17.07;10.47;;;9.50;99.90;;;;;;5012950;28;20451;-75
2021/05/29 04:40:06;;;;;;;15.87;10.77;;;9.50;99.90;;;;;;5012840;28;20487;-75
2021/05/29 04:42:32;;;;;;;18.00;11.77;;;9.30;99.90;;;;;;5013011;28;20575;-75
2021/05/29 04:44:58;;;;;;;18.90;11.00;;;9.30;99.90;;;;;;5012825;28;20447;-75
2021/05/29 04:47:24;;;;;;;17.80;12.90;;;9.30;99.90;;;;;;5012653;28;20499;-76
2021/05/29 04:49:51;;;;;;;23.70;14.13;;;9.40;99.90;;;;;;5012881;28;20862;-75
2021/05/29 04:52:17;;;;;;;22.43;14.53;;;9.40;99.90;;;;;;5012762;28;20866;-75
2021/05/29 04:54:43;;;;;;;31.20;18.50;;;9.40;99.90;;;;;;5012738;28;20457;-75
2021/05/29 04:57:09;;;;;;;30.80;20.40;;;9.10;99.90;;;;;;5012652;28;20776;-75
2021/05/29 04:59:35;;;;;;;29.40;21.13;;;9.30;99.90;;;;;;5012655;28;20513;-75
2021/05/29 05:02:02;;;;;;;30.37;21.17;;;9.50;99.90;;;;;;5012379;28;20451;-75
2021/05/29 05:04:28;;;;;;;23.50;15.60;;;9.30;99.90;;;;;;5012725;28;20462;-76
2021/05/29 05:06:55;;;;;;;21.83;15.30;;;9.20;99.90;;;;;;5012255;28;20489;-75
2021/05/29 05:09:21;;;;;;;17.73;13.40;;;9.20;99.90;;;;;;5012473;28;20418;-75
2021/05/29 05:11:47;;;;;;;20.97;13.23;;;9.00;99.90;;;;;;5012493;28;20554;-75
2021/05/29 05:14:13;;;;;;;19.63;13.20;;;9.10;99.90;;;;;;5013306;28;20809;-75
2021/05/29 05:16:39;;;;;;;24.20;15.30;;;9.10;99.90;;;;;;5013056;28;20467;-75
2021/05/29 05:19:05;;;;;;;20.80;14.40;;;9.00;99.90;;;;;;5016092;28;20458;-75
2021/05/29 05:21:31;;;;;;;19.43;13.93;;;9.00;99.90;;;;;;5016175;28;20451;-75
2021/05/29 05:23:58;;;;;;;25.20;16.33;;;9.10;99.90;;;;;;5016701;28;20494;-75
2021/05/29 05:26:24;;;;;;;21.33;16.33;;;9.10;99.90;;;;;;5015879;28;20505;-75
2021/05/29 05:28:50;;;;;;;28.13;17.27;;;9.10;99.90;;;;;;5015934;28;20503;-75
2021/05/29 05:31:16;;;;;;;27.93;19.83;;;9.10;99.90;;;;;;5015771;28;20422;-75
2021/05/29 05:33:45;;;;;;;37.43;24.03;;;9.20;99.90;;;;;;5015695;28;20453;-75
2021/05/29 05:36:13;;;;;;;34.63;22.13;;;9.20;99.90;;;;;;5015837;28;20471;-75
2021/05/29 05:38:40;;;;;;;31.47;21.10;;;9.20;99.90;;;;;;5015842;28;20479;-75
2021/05/29 05:41:08;;;;;;;29.80;21.30;;;9.20;99.90;;;;;;5016268;28;20483;-75
2021/05/29 05:43:35;;;;;;;30.90;21.23;;;9.20;99.90;;;;;;5015634;28;20964;-75
2021/05/29 05:46:01;;;;;;;32.30;19.50;;;9.20;99.90;;;;;;5015596;28;20533;-75
2021/05/29 05:48:28;;;;;;;28.67;19.30;;;9.10;99.90;;;;;;5015479;28;21020;-76
2021/05/29 05:50:56;;;;;;;24.73;16.80;;;9.10;99.90;;;;;;5015482;28;20451;-75
2021/05/29 05:53:23;;;;;;;27.83;18.83;;;9.10;99.90;;;;;;5015320;28;20946;-75
2021/05/29 05:55:54;;;;;;;26.73;17.43;;;9.30;99.90;;;;;;5015452;28;20498;-74
2021/05/29 05:58:21;;;;;;;28.90;16.77;;;9.40;99.90;;;;;;5015141;28;21000;-75
2021/05/29 06:00:47;;;;;;;32.07;19.03;;;9.40;99.90;;;;;;5015399;28;20479;-76
2021/05/29 06:03:13;;;;;;;28.30;18.63;;;9.20;99.90;;;;;;5015355;28;20451;-75
2021/05/29 06:05:39;;;;;;;29.63;18.80;;;9.40;99.90;;;;;;5014845;28;20507;-76
2021/05/29 06:08:05;;;;;;;30.80;19.43;;;9.40;99.90;;;;;;5015428;28;20466;-75
2021/05/29 06:10:32;;;;;;;30.67;20.13;;;9.50;99.90;;;;;;5014793;28;20970;-75
2021/05/29 06:12:58;;;;;;;30.43;18.50;;;9.50;99.90;;;;;;5015146;28;20546;-75
2021/05/29 06:18:21;;;;;;;25.27;17.03;;;9.60;99.90;;;;;;5014852;28;20415;-76
2021/05/29 06:20:49;;;;;;;30.07;17.60;;;9.70;99.90;;;;;;5015412;28;20447;-76
2021/05/29 06:23:15;;;;;;;19.33;12.90;;;9.70;99.90;;;;;;5014570;28;20451;-75
2021/05/29 06:25:42;;;;;;;25.30;14.03;;;9.90;99.90;;;;;;5014792;28;20503;-75
2021/05/29 06:28:09;;;;;;;21.93;14.23;;;9.80;99.90;;;;;;5013965;28;20485;-75
2021/05/29 06:30:36;;;;;;;24.33;14.60;;;10.00;99.90;;;;;;5014253;28;20830;-75
2021/05/29 06:33:03;;;;;;;25.60;15.13;;;9.90;99.90;;;;;;5014807;28;20479;-75
2021/05/29 06:35:29;;;;;;;23.03;14.40;;;9.90;99.90;;;;;;5014420;28;20486;-75
2021/05/29 06:37:55;;;;;;;17.40;12.20;;;10.00;99.90;;;;;;5014646;28;20554;-75
2021/05/29 06:40:21;;;;;;;15.83;11.83;;;10.10;99.90;;;;;;5014476;28;20475;-75
2021/05/29 06:42:47;;;;;;;18.90;11.20;;;10.10;99.90;;;;;;5014578;28;20798;-75
2021/05/29 06:45:14;;;;;;;18.30;13.93;;;10.30;99.90;;;;;;5014300;28;20539;-74
2021/05/29 06:47:41;;;;;;;19.73;13.20;;;10.00;99.90;;;;;;5014624;28;20430;-75
2021/05/29 06:50:10;;;;;;;23.40;14.87;;;10.00;99.90;;;;;;5014988;28;20942;-74
2021/05/29 06:52:39;;;;;;;22.93;14.77;;;10.20;99.90;;;;;;5016663;28;20418;-74
2021/05/29 06:58:36;;;;;;;24.07;15.27;;;10.60;99.90;;;;;;5016319;28;20433;-74
2021/05/29 07:00:38;;;;;;;21.83;14.50;;;10.80;99.90;;;;;;5029816;28;20434;-75
2021/05/29 07:03:05;;;;;;;22.83;14.30;;;10.50;99.90;;;;;;5027943;28;20451;-74
2021/05/29 07:05:31;;;;;;;17.00;12.87;;;10.40;99.90;;;;;;5031250;28;20457;-75
2021/05/29 07:07:57;;;;;;;15.50;12.70;;;10.40;99.90;;;;;;5033135;28;20420;-74
2021/05/29 07:10:23;;;;;;;18.63;12.03;;;10.60;99.90;;;;;;5030331;28;20438;-74
2021/05/29 07:12:49;;;;;;;16.80;12.57;;;10.70;99.90;;;;;;5015419;28;20440;-75
2021/05/29 07:15:16;;;;;;;16.33;11.60;;;11.20;99.90;;;;;;5015366;28;20482;-75
2021/05/29 07:17:45;;;;;;;16.87;11.13;;;10.80;99.90;;;;;;5014939;28;20443;-75
2021/05/29 07:20:14;;;;;;;18.83;11.90;;;10.80;99.90;;;;;;5020168;28;20981;-75
2021/05/29 07:22:40;;;;;;;14.80;10.40;;;10.90;99.90;;;;;;5027810;28;20443;-75
2021/05/29 07:25:08;;;;;;;17.53;9.23;;;10.50;99.90;;;;;;5033397;28;20478;-75
2021/05/29 07:27:34;;;;;;;20.30;10.80;;;10.80;99.90;;;;;;5017116;28;20454;-75
2021/05/29 07:30:06;;;;;;;11.80;9.57;;;10.90;99.90;;;;;;5016857;28;20494;-75
2021/05/29 07:32:33;;;;;;;17.53;11.03;;;10.90;99.90;;;;;;5017153;28;20414;-75
2021/05/29 07:34:59;;;;;;;12.47;9.10;;;11.10;99.90;;;;;;5018079;28;20794;-75
2021/05/29 07:37:26;;;;;;;11.13;8.30;;;11.30;99.90;;;;;;5016571;28;20471;-75
2021/05/29 07:39:52;;;;;;;11.60;9.37;;;11.40;99.90;;;;;;5015373;28;20614;-75
2021/05/29 07:42:18;;;;;;;10.43;8.80;;;11.40;99.90;;;;;;5014211;28;20462;-75
2021/05/29 07:44:44;;;;;;;15.83;8.97;;;11.40;99.90;;;;;;5013917;28;20462;-78
2021/05/29 07:47:10;;;;;;;14.00;8.70;;;11.40;99.90;;;;;;5014215;28;20473;-77
2021/05/29 07:49:36;;;;;;;18.90;10.50;;;11.60;99.90;;;;;;5014538;28;20439;-77
2021/05/29 07:52:03;;;;;;;11.20;8.03;;;11.70;99.90;;;;;;5013657;28;20519;-76
2021/05/29 07:54:31;;;;;;;13.50;7.63;;;11.50;99.90;;;;;;5013598;28;21008;-78
2021/05/29 07:56:57;;;;;;;13.47;8.80;;;12.40;99.90;;;;;;5013724;28;20502;-76
2021/05/29 07:59:23;;;;;;;11.00;6.37;;;12.00;99.90;;;;;;5013399;28;20493;-76
2021/05/29 08:01:50;;;;;;;15.43;8.70;;;12.00;99.90;;;;;;5015360;28;20452;-77
2021/05/29 08:04:17;;;;;;;11.93;7.30;;;12.20;99.90;;;;;;5013462;28;20455;-76
2021/05/29 08:06:43;;;;;;;12.93;7.10;;;12.30;99.90;;;;;;5013051;28;20486;-76
2021/05/29 08:09:09;;;;;;;12.97;8.70;;;12.20;99.90;;;;;;5014955;28;20454;-77
2021/05/29 08:11:38;;;;;;;9.30;7.17;;;12.50;99.90;;;;;;5013276;28;20454;-77
2021/05/29 08:14:06;;;;;;;14.60;7.80;;;12.60;99.90;;;;;;5013375;28;20447;-77
2021/05/29 08:16:32;;;;;;;11.97;8.57;;;12.50;99.90;;;;;;5013321;28;20914;-76
2021/05/29 08:18:59;;;;;;;8.87;6.80;;;;;;;;;;5013263;28;20487;-76
2021/05/29 08:21:25;;;;;;;10.83;7.90;;;12.50;99.90;;;;;;5013122;28;20477;-76
2021/05/29 08:23:52;;;;;;;8.03;6.73;;;12.60;99.90;;;;;;5013216;28;20551;-76
2021/05/29 08:26:19;;;;;;;11.77;7.37;;;12.60;99.90;;;;;;5013474;28;20475;-77
2021/05/29 08:28:47;;;;;;;11.97;6.50;;;12.60;99.90;;;;;;5013667;28;20474;-75
2021/05/29 08:31:14;;;;;;;8.53;6.60;;;12.80;99.90;;;;;;5013714;28;20455;-76
2021/05/29 08:33:40;;;;;;;9.23;7.33;;;12.80;99.90;;;;;;5015174;28;20447;-76
2021/05/29 08:36:07;;;;;;;8.50;6.67;;;12.70;99.90;;;;;;5013416;28;20499;-75
2021/05/29 08:38:34;;;;;;;11.40;7.00;;;12.80;99.90;;;;;;5013339;28;20519;-76
2021/05/29 08:41:00;;;;;;;9.63;7.10;;;13.10;99.90;;;;;;5013291;28;20451;-77
2021/05/29 08:43:26;;;;;;;7.07;6.23;;;13.30;99.90;;;;;;5013732;28;20447;-77
2021/05/29 08:45:54;;;;;;;10.90;7.10;;;13.30;99.90;;;;;;5013173;28;20518;-77
2021/05/29 08:48:20;;;;;;;8.73;6.33;;;13.50;99.90;;;;;;5013518;28;20446;-76
2021/05/29 08:53:27;;;;;;;11.00;6.83;;;13.40;99.90;;;;;;5016130;28;20417;-76
2021/05/29 08:55:53;;;;;;;9.30;5.67;;;14.10;99.90;;;;;;5019168;28;20467;-76
2021/05/29 08:58:19;;;;;;;7.33;5.73;;;13.90;99.90;;;;;;5017965;28;20490;-77
2021/05/29 09:00:46;;;;;;;9.77;6.27;;;13.90;99.90;;;;;;5018023;28;20481;-76
2021/05/29 09:03:13;;;;;;;7.50;6.73;;;13.90;99.90;;;;;;5017260;28;20455;-77
2021/05/29 09:05:42;;;;;;;9.80;7.20;;;13.70;99.90;;;;;;5016703;28;20456;-76
2021/05/29 09:08:10;;;;;;;8.03;5.43;;;13.30;99.90;;;;;;5016482;28;20497;-77
2021/05/29 09:10:39;;;;;;;10.63;7.00;;;13.70;99.90;;;;;;5017299;28;20447;-76
2021/05/29 09:13:10;;;;;;;9.10;7.10;;;13.70;99.90;;;;;;5016684;28;20870;-76
2021/05/29 09:15:54;;;;;;;8.90;6.00;;;13.70;99.90;;;;;;5017031;28;20471;-77
2021/05/29 09:18:33;;;;;;;10.73;6.60;;;13.80;99.90;;;;;;5017854;28;20431;-76
2021/05/29 09:21:22;;;;;;;7.80;5.63;;;14.10;99.90;;;;;;5015263;28;20454;-76
2021/05/29 09:23:50;;;;;;;10.13;5.73;;;14.00;99.90;;;;;;5017344;28;20439;-76
2021/05/29 09:26:16;;;;;;;8.47;5.73;;;14.20;99.90;;;;;;5016568;28;20471;-77
2021/05/29 09:28:44;;;;;;;11.37;6.20;;;14.30;99.90;;;;;;5016584;28;20435;-76
2021/05/29 09:31:14;;;;;;;6.27;5.60;;;14.40;99.90;;;;;;5016448;28;20432;-76
2021/05/29 09:33:43;;;;;;;13.10;6.90;;;14.40;99.90;;;;;;5016083;28;20467;-76
2021/05/29 09:36:11;;;;;;;8.67;7.27;;;14.40;99.90;;;;;;5016293;28;20463;-76
2021/05/29 09:38:39;;;;;;;8.70;6.87;;;14.50;99.90;;;;;;5016501;28;20830;-77
2021/05/29 09:41:17;;;;;;;9.23;6.77;;;14.50;99.90;;;;;;5026431;28;20457;-75
2021/05/29 09:43:55;;;;;;;10.10;6.77;;;14.60;99.90;;;;;;5029127;28;20435;-77
2021/05/29 09:46:22;;;;;;;8.10;6.70;;;13.60;99.90;;;;;;5025495;28;20546;-76
2021/05/29 09:48:58;;;;;;;9.00;8.10;;;14.40;99.90;;;;;;5018542;28;20512;-75
2021/05/29 09:51:26;;;;;;;7.47;6.73;;;14.50;99.90;;;;;;5018017;28;20446;-75
2021/05/29 09:53:56;;;;;;;6.77;6.00;;;14.30;99.90;;;;;;5017333;28;20815;-77
2021/05/29 09:56:27;;;;;;;10.60;7.40;;;14.20;99.90;;;;;;5017140;28;20476;-76
2021/05/29 09:58:58;;;;;;;9.23;7.00;;;14.30;99.90;;;;;;5017527;28;20467;-76
2021/05/29 10:01:39;;;;;;;11.40;6.30;;;14.50;99.90;;;;;;5016289;28;20463;-76
2021/05/29 10:04:07;;;;;;;9.67;7.70;;;14.70;99.90;;;;;;5015331;28;20471;-76
2021/05/29 10:06:34;;;;;;;8.00;6.67;;;14.90;99.90;;;;;;5015495;28;20471;-76
2021/05/29 10:09:00;;;;;;;10.50;7.03;;;15.00;99.90;;;;;;5016940;28;20447;-77
2021/05/29 10:11:27;;;;;;;11.83;7.63;;;15.00;99.90;;;;;;5016910;28;20954;-77
2021/05/29 10:13:53;;;;;;;8.77;6.90;;;14.90;99.90;;;;;;5018006;28;20451;-76
2021/05/29 10:23:07;;;;;;;7.87;6.67;;;;;;;;;;4859178;29;20928;-76
2021/05/29 10:25:34;;;;;;;9.70;6.70;;;15.50;99.90;;;;;;4936630;29;20533;-77
2021/05/29 10:28:00;;;;;;;7.57;6.60;;;15.60;99.90;;;;;;4984829;28;20485;-77
2021/05/29 10:30:29;;;;;;;16.77;8.17;;;15.40;99.90;;;;;;5016183;28;20476;-77
2021/05/29 10:33:23;;;;;;;16.47;8.50;;;15.20;99.90;;;;;;5015819;28;20526;-77
2021/05/29 10:35:50;;;;;;;9.93;7.23;;;15.00;99.90;;;;;;5015551;28;20479;-77
2021/05/29 10:38:21;;;;;;;7.93;6.87;;;15.00;99.90;;;;;;5016201;28;20458;-77
2021/05/29 10:40:49;;;;;;;10.67;6.60;;;15.10;99.90;;;;;;5016458;28;20471;-77
2021/05/29 10:43:19;;;;;;;9.90;6.90;;;15.10;99.90;;;;;;5015098;28;20459;-76
2021/05/29 10:46:07;;;;;;;10.60;7.83;;;14.80;99.90;;;;;;5016167;28;20561;-75
2021/05/29 10:48:43;;;;;;;8.47;7.37;;;15.00;99.90;;;;;;5017499;28;20463;-77
2021/05/29 10:51:12;;;;;;;9.17;7.43;;;15.20;99.90;;;;;;5017857;28;20794;-75
2021/05/29 10:53:49;;;;;;;6.80;6.03;;;15.10;99.90;;;;;;5017488;28;20447;-75
2021/05/29 10:56:32;;;;;;;12.73;7.30;;;15.10;99.90;;;;;;5018499;28;20466;-76
2021/05/29 10:59:01;;;;;;;12.83;8.30;;;15.20;99.90;;;;;;5017884;28;20506;-77
2021/05/29 11:02:01;;;;;;;8.23;7.40;;;15.40;99.90;;;;;;5016603;28;21035;-76
2021/05/29 11:04:28;;;;;;;19.30;7.50;;;15.60;99.90;;;;;;5016677;28;20885;-76
2021/05/29 11:06:55;;;;;;;12.13;7.73;;;15.40;99.90;;;;;;5022011;28;20559;-77
2021/05/29 11:09:49;;;;;;;8.67;7.17;;;15.30;99.90;;;;;;5032775;28;20454;-76
2021/05/29 11:12:15;;;;;;;10.57;6.83;;;15.40;99.90;;;;;;5034777;28;20535;-75
2021/05/29 11:14:56;;;;;;;9.90;7.57;;;15.20;99.90;;;;;;5025800;28;20443;-76
2021/05/29 11:17:23;;;;;;;9.60;7.90;;;15.40;99.90;;;;;;5017435;28;20562;-76
2021/05/29 11:20:05;;;;;;;8.90;8.00;;;15.40;99.90;;;;;;5015460;28;20586;-76
2021/05/29 11:22:42;;;;;;;8.63;7.47;;;15.30;99.90;;;;;;5015372;28;20427;-76
2021/05/29 11:25:19;;;;;;;9.70;7.93;;;15.40;99.90;;;;;;5015635;28;20775;-76
2021/05/29 11:27:47;;;;;;;9.80;7.33;;;15.40;99.90;;;;;;5015423;28;20431;-77
2021/05/29 11:30:15;;;;;;;7.90;6.93;;;15.60;99.90;;;;;;5014936;28;20447;-76
2021/05/29 11:32:51;;;;;;;18.17;9.97;;;15.80;99.90;;;;;;5014662;28;20451;-78
2021/05/29 11:35:23;;;;;;;11.00;8.63;;;15.40;99.90;;;;;;5015345;28;20434;-76
2021/05/29 11:37:57;;;;;;;10.37;7.73;;;15.70;99.90;;;;;;5014594;28;20505;-77
2021/05/29 11:40:55;;;;;;;12.60;9.43;;;15.70;99.90;;;;;;5014664;28;20487;-76
2021/05/29 11:43:40;;;;;;;9.90;7.90;;;15.60;99.90;;;;;;5016649;28;20447;-77
2021/05/29 11:46:07;;;;;;;10.13;7.47;;;15.80;99.90;;;;;;5015922;28;20467;-77
2021/05/29 11:48:36;;;;;;;8.20;7.10;;;15.90;99.90;;;;;;5016073;28;20873;-78
2021/05/29 11:51:11;;;;;;;10.27;7.40;;;15.80;99.90;;;;;;5016811;28;20455;-76
2021/05/29 11:53:39;;;;;;;10.07;7.97;;;15.60;99.90;;;;;;5015816;28;20436;-75
2021/05/29 11:56:06;;;;;;;14.50;7.70;;;15.60;99.90;;;;;;5014657;28;21004;-75
2021/05/29 11:58:46;;;;;;;10.43;7.90;;;15.50;99.90;;;;;;5014511;28;20909;-75
2021/05/29 12:01:14;;;;;;;8.97;6.83;;;15.60;99.90;;;;;;5014000;28;20987;-74
2021/05/29 12:03:43;;;;;;;11.27;7.87;;;15.70;99.90;;;;;;5014357;28;20585;-75
2021/05/29 12:06:10;;;;;;;13.43;8.10;;;15.60;99.90;;;;;;5014172;28;20529;-74
2021/05/29 12:12:25;;;;;;;7.70;7.00;;;15.70;99.90;;;;;;5014533;28;20516;-76
2021/05/29 12:14:51;;;;;;;9.03;8.07;;;15.70;99.90;;;;;;5014269;28;20527;-76
2021/05/29 12:17:17;;;;;;;7.93;7.17;;;16.10;99.90;;;;;;5014183;28;20471;-75
2021/05/29 12:19:45;;;;;;;9.40;8.10;;;16.20;99.90;;;;;;5013884;28;20483;-76
2021/05/29 12:22:15;;;;;;;12.17;7.03;;;16.10;99.90;;;;;;5014071;28;20786;-76
2021/05/29 12:24:42;;;;;;;7.50;6.77;;;16.10;99.90;;;;;;5013847;28;20462;-76
2021/05/29 12:27:11;;;;;;;13.73;10.10;;;16.20;99.90;;;;;;5016290;28;20463;-76
2021/05/29 12:29:38;;;;;;;8.90;7.93;;;16.00;99.90;;;;;;5018047;28;20447;-76
2021/05/29 12:32:06;;;;;;;12.47;7.57;;;16.20;99.90;;;;;;5018123;28;20821;-76
2021/05/29 12:34:33;;;;;;;14.20;8.43;;;;;;;;;;5018120;28;20844;-77
2021/05/29 12:37:03;;;;;;;10.50;7.33;;;16.10;99.90;;;;;;5017480;28;20503;-76
2021/05/29 12:39:46;;;;;;;8.40;6.60;;;16.10;99.90;;;;;;5017892;28;20463;-76
2021/05/29 12:42:43;;;;;;;10.93;8.33;;;16.20;99.90;;;;;;5017445;28;20442;-76
2021/05/29 12:45:17;;;;;;;7.73;6.87;;;16.10;99.90;;;;;;5018176;28;20434;-76
2021/05/29 12:47:52;;;;;;;11.63;7.37;;;15.90;99.90;;;;;;5018164;28;20439;-76
2021/05/29 12:50:22;;;;;;;8.03;6.80;;;15.90;99.90;;;;;;5020057;28;20514;-76
2021/05/29 12:52:48;;;;;;;13.30;7.10;;;16.00;99.90;;;;;;5018136;28;20475;-76
2021/05/29 12:55:20;;;;;;;13.70;7.30;;;15.80;99.90;;;;;;5018845;28;20451;-76
2021/05/29 12:57:46;;;;;;;10.33;7.67;;;16.10;99.90;;;;;;5020469;28;20452;-77
2021/05/29 13:00:24;;;;;;;8.27;7.30;;;16.20;99.90;;;;;;5019281;28;20479;-76
2021/05/29 13:08:29;;;;;;;8.47;7.70;;;16.30;99.90;;;;;;5018493;28;20425;-76
2021/05/29 13:10:59;;;;;;;8.53;6.57;;;16.30;99.90;;;;;;5018016;28;20856;-76
2021/05/29 13:13:26;;;;;;;10.37;6.80;;;16.10;99.90;;;;;;5017663;28;20921;-75
2021/05/29 13:16:02;;;;;;;7.97;7.20;;;16.00;99.90;;;;;;5017859;28;20467;-76